sensor_id;sensor_type;location;lat;lon;timestamp;pressure;altitude;pressure_sealevel;temperature;humidity
16580;BME280;8402;51.466;6.806;2023-04-24T00:00:33;99787.41;;;13.18;78.65
16580;BME280;8402;51.466;6.806;2023-04-24T00:03:03;99781.53;;;13.16;78.91
16580;BME280;8402;51.466;6.806;2023-04-24T00:05:34;99781.16;;;13.17;79.11
16580;BME280;8402;51.466;6.806;2023-04-24T00:08:04;99772.22;;;13.17;79.29
16580;BME280;8402;51.466;6.806;2023-04-24T00:10:37;99769.91;;;13.19;79.09
16580;BME280;8402;51.466;6.806;2023-04-24T00:13:07;99776.28;;;13.23;79.49
16580;BME280;8402;51.466;6.806;2023-04-24T00:15:37;99772.81;;;13.26;79.18
16580;BME280;8402;51.466;6.806;2023-04-24T00:18:07;99779.16;;;13.30;79.31
16580;BME280;8402;51.466;6.806;2023-04-24T00:20:37;99784.44;;;13.23;79.55
16580;BME280;8402;51.466;6.806;2023-04-24T00:23:07;99781.72;;;13.23;79.41
16580;BME280;8402;51.466;6.806;2023-04-24T00:25:39;99782.88;;;13.22;79.35
16580;BME280;8402;51.466;6.806;2023-04-24T00:28:09;99776.09;;;13.16;79.82
16580;BME280;8402;51.466;6.806;2023-04-24T00:30:40;99777.94;;;13.12;79.30
16580;BME280;8402;51.466;6.806;2023-04-24T00:33:10;99790.41;;;13.13;79.52
16580;BME280;8402;51.466;6.806;2023-04-24T00:35:39;99790.41;;;13.13;79.34
16580;BME280;8402;51.466;6.806;2023-04-24T00:38:10;99789.53;;;13.09;78.87
16580;BME280;8402;51.466;6.806;2023-04-24T00:40:42;99803.06;;;13.05;79.49
16580;BME280;8402;51.466;6.806;2023-04-24T00:43:13;99798.53;;;12.93;78.64
16580;BME280;8402;51.466;6.806;2023-04-24T00:45:43;99788.31;;;12.90;78.61
16580;BME280;8402;51.466;6.806;2023-04-24T00:48:13;99789.03;;;12.87;78.71
16580;BME280;8402;51.466;6.806;2023-04-24T00:50:44;99787.34;;;12.83;79.10
16580;BME280;8402;51.466;6.806;2023-04-24T00:53:14;99788.84;;;12.80;79.17
16580;BME280;8402;51.466;6.806;2023-04-24T00:55:47;99795.00;;;12.77;79.50
16580;BME280;8402;51.466;6.806;2023-04-24T00:58:17;99801.31;;;12.81;79.38
16580;BME280;8402;51.466;6.806;2023-04-24T01:00:49;99802.91;;;12.82;79.14
16580;BME280;8402;51.466;6.806;2023-04-24T01:03:20;99802.00;;;12.78;79.42
16580;BME280;8402;51.466;6.806;2023-04-24T01:05:51;99804.31;;;12.76;79.62
16580;BME280;8402;51.466;6.806;2023-04-24T01:08:24;99798.84;;;12.76;79.42
16580;BME280;8402;51.466;6.806;2023-04-24T01:10:57;99805.88;;;12.77;79.40
16580;BME280;8402;51.466;6.806;2023-04-24T01:13:27;99810.63;;;12.80;79.14
16580;BME280;8402;51.466;6.806;2023-04-24T01:15:57;99790.44;;;12.81;79.53
16580;BME280;8402;51.466;6.806;2023-04-24T01:18:28;99800.59;;;12.84;79.15
16580;BME280;8402;51.466;6.806;2023-04-24T01:20:59;99791.75;;;12.87;78.84
16580;BME280;8402;51.466;6.806;2023-04-24T01:23:32;99782.00;;;12.86;78.57
16580;BME280;8402;51.466;6.806;2023-04-24T01:26:02;99782.09;;;12.90;78.83
16580;BME280;8402;51.466;6.806;2023-04-24T01:28:32;99790.50;;;12.85;78.40
16580;BME280;8402;51.466;6.806;2023-04-24T01:31:02;99787.34;;;12.83;78.18
16580;BME280;8402;51.466;6.806;2023-04-24T01:33:32;99796.66;;;12.82;78.53
16580;BME280;8402;51.466;6.806;2023-04-24T01:36:03;99796.56;;;12.78;78.31
16580;BME280;8402;51.466;6.806;2023-04-24T01:38:36;99792.63;;;12.76;78.92
16580;BME280;8402;51.466;6.806;2023-04-24T01:41:05;99796.22;;;12.64;78.79
16580;BME280;8402;51.466;6.806;2023-04-24T01:43:35;99793.06;;;12.62;79.08
16580;BME280;8402;51.466;6.806;2023-04-24T01:46:06;99787.63;;;12.62;79.34
16580;BME280;8402;51.466;6.806;2023-04-24T01:48:36;99793.16;;;12.65;79.16
16580;BME280;8402;51.466;6.806;2023-04-24T01:51:06;99787.78;;;12.69;79.07
16580;BME280;8402;51.466;6.806;2023-04-24T01:53:38;99791.66;;;12.68;78.98
16580;BME280;8402;51.466;6.806;2023-04-24T01:56:09;99802.13;;;12.66;79.17
16580;BME280;8402;51.466;6.806;2023-04-24T01:58:39;99787.63;;;12.62;79.37
16580;BME280;8402;51.466;6.806;2023-04-24T02:01:15;99791.72;;;12.56;79.91
16580;BME280;8402;51.466;6.806;2023-04-24T02:03:45;99794.72;;;12.51;79.77
16580;BME280;8402;51.466;6.806;2023-04-24T02:06:15;99806.09;;;12.40;80.19
16580;BME280;8402;51.466;6.806;2023-04-24T02:08:47;99798.53;;;12.34;80.46
16580;BME280;8402;51.466;6.806;2023-04-24T02:11:17;99808.56;;;12.30;80.43
16580;BME280;8402;51.466;6.806;2023-04-24T02:13:47;99806.44;;;12.23;80.90
16580;BME280;8402;51.466;6.806;2023-04-24T02:16:18;99801.88;;;12.27;81.08
16580;BME280;8402;51.466;6.806;2023-04-24T02:18:48;99794.84;;;12.26;80.80
16580;BME280;8402;51.466;6.806;2023-04-24T02:21:18;99799.16;;;12.27;80.81
16580;BME280;8402;51.466;6.806;2023-04-24T02:23:50;99814.13;;;12.21;81.17
16580;BME280;8402;51.466;6.806;2023-04-24T02:26:20;99807.13;;;12.20;80.85
16580;BME280;8402;51.466;6.806;2023-04-24T02:28:50;99799.75;;;12.21;80.76
16580;BME280;8402;51.466;6.806;2023-04-24T02:31:20;99793.63;;;12.24;80.47
16580;BME280;8402;51.466;6.806;2023-04-24T02:33:50;99800.53;;;12.21;80.47
16580;BME280;8402;51.466;6.806;2023-04-24T02:36:20;99804.66;;;12.15;80.82
16580;BME280;8402;51.466;6.806;2023-04-24T02:38:53;99794.91;;;12.14;81.11
16580;BME280;8402;51.466;6.806;2023-04-24T02:41:23;99800.59;;;12.09;81.33
16580;BME280;8402;51.466;6.806;2023-04-24T02:43:58;99792.69;;;12.04;81.36
16580;BME280;8402;51.466;6.806;2023-04-24T02:46:28;99797.78;;;12.05;81.31
16580;BME280;8402;51.466;6.806;2023-04-24T02:48:58;99806.47;;;12.11;81.85
16580;BME280;8402;51.466;6.806;2023-04-24T02:51:29;99802.19;;;12.10;81.54
16580;BME280;8402;51.466;6.806;2023-04-24T02:54:02;99802.44;;;12.05;81.49
16580;BME280;8402;51.466;6.806;2023-04-24T02:56:32;99803.81;;;11.99;81.90
16580;BME280;8402;51.466;6.806;2023-04-24T02:59:02;99812.66;;;11.96;82.42
16580;BME280;8402;51.466;6.806;2023-04-24T03:01:32;99809.50;;;11.94;82.07
16580;BME280;8402;51.466;6.806;2023-04-24T03:04:02;99811.44;;;11.93;81.80
16580;BME280;8402;51.466;6.806;2023-04-24T03:06:33;99818.78;;;11.93;82.19
16580;BME280;8402;51.466;6.806;2023-04-24T03:09:05;99822.63;;;11.92;82.16
16580;BME280;8402;51.466;6.806;2023-04-24T03:11:35;99813.81;;;11.95;82.07
16580;BME280;8402;51.466;6.806;2023-04-24T03:14:05;99815.38;;;11.96;82.28
16580;BME280;8402;51.466;6.806;2023-04-24T03:16:35;99816.56;;;11.82;82.81
16580;BME280;8402;51.466;6.806;2023-04-24T03:19:05;99813.13;;;11.85;82.93
16580;BME280;8402;51.466;6.806;2023-04-24T03:21:38;99817.47;;;11.87;83.07
16580;BME280;8402;51.466;6.806;2023-04-24T03:24:11;99820.19;;;11.87;83.11
16580;BME280;8402;51.466;6.806;2023-04-24T03:26:41;99817.47;;;11.87;83.10
16580;BME280;8402;51.466;6.806;2023-04-24T03:29:11;99813.13;;;11.85;83.32
16580;BME280;8402;51.466;6.806;2023-04-24T03:31:40;99818.13;;;11.83;83.02
16580;BME280;8402;51.466;6.806;2023-04-24T03:34:10;99815.84;;;11.85;83.09
16580;BME280;8402;51.466;6.806;2023-04-24T03:36:40;99822.09;;;11.86;82.78
16580;BME280;8402;51.466;6.806;2023-04-24T03:39:13;99819.47;;;11.77;83.54
16580;BME280;8402;51.466;6.806;2023-04-24T03:41:43;99818.34;;;11.78;83.35
16580;BME280;8402;51.466;6.806;2023-04-24T03:44:13;99832.44;;;11.80;83.67
16580;BME280;8402;51.466;6.806;2023-04-24T03:46:43;99824.72;;;11.82;83.40
16580;BME280;8402;51.466;6.806;2023-04-24T03:49:13;99829.44;;;11.85;83.42
16580;BME280;8402;51.466;6.806;2023-04-24T03:51:43;99823.56;;;11.83;83.28
16580;BME280;8402;51.466;6.806;2023-04-24T03:54:16;99829.72;;;11.80;83.34
16580;BME280;8402;51.466;6.806;2023-04-24T03:56:46;99823.44;;;11.80;83.25
16580;BME280;8402;51.466;6.806;2023-04-24T03:59:16;99824.28;;;11.80;83.28
16580;BME280;8402;51.466;6.806;2023-04-24T04:01:46;99830.50;;;11.81;83.15
16580;BME280;8402;51.466;6.806;2023-04-24T04:04:16;99834.44;;;11.83;82.74
16580;BME280;8402;51.466;6.806;2023-04-24T04:06:46;99826.50;;;11.78;82.71
16580;BME280;8402;51.466;6.806;2023-04-24T04:09:21;99822.66;;;11.79;82.92
16580;BME280;8402;51.466;6.806;2023-04-24T04:11:52;99829.00;;;11.83;82.91
16580;BME280;8402;51.466;6.806;2023-04-24T04:14:21;99829.00;;;11.83;82.95
16580;BME280;8402;51.466;6.806;2023-04-24T04:16:52;99827.44;;;11.82;82.76
16580;BME280;8402;51.466;6.806;2023-04-24T04:19:22;99839.44;;;11.81;83.13
16580;BME280;8402;51.466;6.806;2023-04-24T04:21:52;99846.91;;;11.84;83.17
16580;BME280;8402;51.466;6.806;2023-04-24T04:24:25;99835.34;;;11.88;82.17
16580;BME280;8402;51.466;6.806;2023-04-24T04:26:55;99838.94;;;11.92;82.84
16580;BME280;8402;51.466;6.806;2023-04-24T04:29:26;99845.72;;;11.98;82.51
16580;BME280;8402;51.466;6.806;2023-04-24T04:31:56;99834.19;;;12.01;82.08
16580;BME280;8402;51.466;6.806;2023-04-24T04:34:26;99833.38;;;12.00;81.98
16580;BME280;8402;51.466;6.806;2023-04-24T04:36:56;99845.06;;;12.01;81.96
16580;BME280;8402;51.466;6.806;2023-04-24T04:39:29;99845.50;;;12.03;81.68
16580;BME280;8402;51.466;6.806;2023-04-24T04:41:59;99843.44;;;12.00;81.61
16580;BME280;8402;51.466;6.806;2023-04-24T04:44:29;99848.22;;;12.03;81.73
16580;BME280;8402;51.466;6.806;2023-04-24T04:47:02;99857.16;;;12.03;81.35
16580;BME280;8402;51.466;6.806;2023-04-24T04:49:33;99853.06;;;12.09;81.54
16580;BME280;8402;51.466;6.806;2023-04-24T04:52:03;99856.72;;;12.01;80.95
16580;BME280;8402;51.466;6.806;2023-04-24T04:54:39;99859.88;;;12.03;80.97
16580;BME280;8402;51.466;6.806;2023-04-24T04:57:09;99860.78;;;12.07;81.19
16580;BME280;8402;51.466;6.806;2023-04-24T04:59:40;99866.81;;;12.01;81.23
16580;BME280;8402;51.466;6.806;2023-04-24T05:02:10;99864.09;;;12.01;81.11
16580;BME280;8402;51.466;6.806;2023-04-24T05:04:40;99856.72;;;12.01;81.11
16580;BME280;8402;51.466;6.806;2023-04-24T05:07:11;99859.31;;;11.98;80.67
16580;BME280;8402;51.466;6.806;2023-04-24T05:09:46;99868.19;;;11.95;81.51
16580;BME280;8402;51.466;6.806;2023-04-24T05:12:16;99861.16;;;11.94;81.29
16580;BME280;8402;51.466;6.806;2023-04-24T05:14:45;99865.69;;;11.90;81.45
16580;BME280;8402;51.466;6.806;2023-04-24T05:17:15;99856.41;;;11.91;81.57
16580;BME280;8402;51.466;6.806;2023-04-24T05:19:46;99861.84;;;11.91;81.67
16580;BME280;8402;51.466;6.806;2023-04-24T05:22:16;99874.06;;;11.84;82.34
16580;BME280;8402;51.466;6.806;2023-04-24T05:24:50;99872.94;;;11.73;83.42
16580;BME280;8402;51.466;6.806;2023-04-24T05:27:20;99872.63;;;11.63;84.02
16580;BME280;8402;51.466;6.806;2023-04-24T05:29:50;99864.81;;;11.61;84.89
16580;BME280;8402;51.466;6.806;2023-04-24T05:32:20;99874.75;;;11.57;85.42
16580;BME280;8402;51.466;6.806;2023-04-24T05:34:50;99866.97;;;11.55;85.63
16580;BME280;8402;51.466;6.806;2023-04-24T05:37:20;99877.50;;;11.45;87.18
16580;BME280;8402;51.466;6.806;2023-04-24T05:39:53;99872.97;;;11.49;86.77
16580;BME280;8402;51.466;6.806;2023-04-24T05:42:22;99872.06;;;11.45;87.12
16580;BME280;8402;51.466;6.806;2023-04-24T05:44:52;99879.09;;;11.46;87.61
16580;BME280;8402;51.466;6.806;2023-04-24T05:47:23;99876.03;;;11.47;86.85
16580;BME280;8402;51.466;6.806;2023-04-24T05:49:53;99881.81;;;11.46;86.80
16580;BME280;8402;51.466;6.806;2023-04-24T05:52:23;99877.25;;;11.50;87.19
16580;BME280;8402;51.466;6.806;2023-04-24T05:54:56;99877.72;;;11.52;86.93
16580;BME280;8402;51.466;6.806;2023-04-24T05:57:28;99879.75;;;11.55;86.37
16580;BME280;8402;51.466;6.806;2023-04-24T05:59:59;99880.88;;;11.54;86.44
16580;BME280;8402;51.466;6.806;2023-04-24T06:02:29;99883.16;;;11.52;86.29
16580;BME280;8402;51.466;6.806;2023-04-24T06:04:59;99883.50;;;11.50;86.42
16580;BME280;8402;51.466;6.806;2023-04-24T06:07:29;99879.75;;;11.43;86.99
16580;BME280;8402;51.466;6.806;2023-04-24T06:10:02;99892.09;;;11.40;87.38
16580;BME280;8402;51.466;6.806;2023-04-24T06:12:33;99889.59;;;11.35;87.78
16580;BME280;8402;51.466;6.806;2023-04-24T06:15:04;99884.16;;;11.35;88.97
16580;BME280;8402;51.466;6.806;2023-04-24T06:17:35;99887.22;;;11.34;88.58
16580;BME280;8402;51.466;6.806;2023-04-24T06:20:06;99884.97;;;11.36;88.51
16580;BME280;8402;51.466;6.806;2023-04-24T06:22:37;99885.66;;;11.33;89.46
16580;BME280;8402;51.466;6.806;2023-04-24T06:25:10;99887.56;;;11.32;90.22
16580;BME280;8402;51.466;6.806;2023-04-24T06:27:40;99876.50;;;11.37;90.13
16580;BME280;8402;51.466;6.806;2023-04-24T06:30:11;99882.72;;;11.38;90.15
16580;BME280;8402;51.466;6.806;2023-04-24T06:32:40;99880.88;;;11.42;89.72
16580;BME280;8402;51.466;6.806;2023-04-24T06:35:10;99875.81;;;11.40;90.17
16580;BME280;8402;51.466;6.806;2023-04-24T06:37:41;99881.69;;;11.42;90.06
16580;BME280;8402;51.466;6.806;2023-04-24T06:40:14;99881.13;;;11.37;91.26
16580;BME280;8402;51.466;6.806;2023-04-24T06:42:45;99875.72;;;11.37;90.78
16580;BME280;8402;51.466;6.806;2023-04-24T06:45:15;99888.81;;;11.35;91.00
16580;BME280;8402;51.466;6.806;2023-04-24T06:47:46;99880.91;;;11.29;91.79
16580;BME280;8402;51.466;6.806;2023-04-24T06:50:16;99871.19;;;11.16;92.18
16580;BME280;8402;51.466;6.806;2023-04-24T06:52:46;99869.34;;;11.20;92.04
16580;BME280;8402;51.466;6.806;2023-04-24T06:55:19;99866.63;;;11.20;91.67
16580;BME280;8402;51.466;6.806;2023-04-24T06:57:49;99873.44;;;11.26;91.44
16580;BME280;8402;51.466;6.806;2023-04-24T07:00:20;99874.00;;;11.32;92.01
16580;BME280;8402;51.466;6.806;2023-04-24T07:02:51;99879.44;;;11.32;92.12
16580;BME280;8402;51.466;6.806;2023-04-24T07:05:21;99864.84;;;11.37;91.86
16580;BME280;8402;51.466;6.806;2023-04-24T07:07:51;99878.97;;;11.42;91.97
16580;BME280;8402;51.466;6.806;2023-04-24T07:10:24;99878.88;;;11.39;92.05
16580;BME280;8402;51.466;6.806;2023-04-24T07:12:55;99875.13;;;11.43;91.44
16580;BME280;8402;51.466;6.806;2023-04-24T07:15:25;99889.97;;;11.46;91.40
16580;BME280;8402;51.466;6.806;2023-04-24T07:17:55;99879.31;;;11.53;91.46
16580;BME280;8402;51.466;6.806;2023-04-24T07:20:25;99887.13;;;11.54;90.49
16580;BME280;8402;51.466;6.806;2023-04-24T07:22:55;99885.97;;;11.55;89.99
16580;BME280;8402;51.466;6.806;2023-04-24T07:25:28;99888.59;;;11.52;90.17
16580;BME280;8402;51.466;6.806;2023-04-24T07:27:58;99888.38;;;11.45;89.79
16580;BME280;8402;51.466;6.806;2023-04-24T07:30:28;99888.16;;;11.38;89.06
16580;BME280;8402;51.466;6.806;2023-04-24T07:32:59;99897.66;;;11.44;89.69
16580;BME280;8402;51.466;6.806;2023-04-24T07:35:29;99908.06;;;11.54;89.59
16580;BME280;8402;51.466;6.806;2023-04-24T07:37:59;99900.13;;;11.49;89.70
16580;BME280;8402;51.466;6.806;2023-04-24T07:40:32;99900.25;;;11.52;89.75
16580;BME280;8402;51.466;6.806;2023-04-24T07:43:02;99906.91;;;11.43;89.45
16580;BME280;8402;51.466;6.806;2023-04-24T07:45:32;99893.13;;;11.48;90.00
16580;BME280;8402;51.466;6.806;2023-04-24T07:48:04;99904.56;;;11.53;89.59
16580;BME280;8402;51.466;6.806;2023-04-24T07:50:35;99893.56;;;11.50;89.79
16580;BME280;8402;51.466;6.806;2023-04-24T07:53:05;99897.97;;;11.54;90.26
16580;BME280;8402;51.466;6.806;2023-04-24T07:55:40;99898.78;;;11.55;89.95
16580;BME280;8402;51.466;6.806;2023-04-24T07:58:10;99897.31;;;11.57;90.24
16580;BME280;8402;51.466;6.806;2023-04-24T08:00:40;99909.53;;;11.51;89.02
16580;BME280;8402;51.466;6.806;2023-04-24T08:03:10;99919.16;;;11.37;89.70
16580;BME280;8402;51.466;6.806;2023-04-24T08:05:40;99922.66;;;11.25;89.92
16580;BME280;8402;51.466;6.806;2023-04-24T08:08:10;99917.56;;;11.23;90.60
16580;BME280;8402;51.466;6.806;2023-04-24T08:10:46;99917.91;;;11.22;90.69
16580;BME280;8402;51.466;6.806;2023-04-24T08:13:16;99930.22;;;11.19;91.29
16580;BME280;8402;51.466;6.806;2023-04-24T08:15:46;99928.19;;;11.16;91.94
16580;BME280;8402;51.466;6.806;2023-04-24T08:18:16;99935.66;;;11.19;92.41
16580;BME280;8402;51.466;6.806;2023-04-24T08:20:46;99939.06;;;11.16;91.97
16580;BME280;8402;51.466;6.806;2023-04-24T08:23:15;99947.19;;;11.16;92.15
16580;BME280;8402;51.466;6.806;2023-04-24T08:25:48;99958.94;;;11.20;92.26
16580;BME280;8402;51.466;6.806;2023-04-24T08:28:18;99965.97;;;11.21;92.39
16580;BME280;8402;51.466;6.806;2023-04-24T08:30:48;99962.81;;;11.19;93.09
16580;BME280;8402;51.466;6.806;2023-04-24T08:33:23;99955.34;;;11.16;93.74
16580;BME280;8402;51.466;6.806;2023-04-24T08:35:53;99969.56;;;11.13;93.82
16580;BME280;8402;51.466;6.806;2023-04-24T08:38:23;99988.13;;;11.11;94.16
16580;BME280;8402;51.466;6.806;2023-04-24T08:40:57;99993.91;;;11.10;95.96
16580;BME280;8402;51.466;6.806;2023-04-24T08:43:28;99997.91;;;11.24;94.75
16580;BME280;8402;51.466;6.806;2023-04-24T08:45:59;100002.78;;;11.31;94.62
16580;BME280;8402;51.466;6.806;2023-04-24T08:48:35;100006.53;;;11.39;94.79
16580;BME280;8402;51.466;6.806;2023-04-24T08:51:07;100004.72;;;11.43;94.96
16580;BME280;8402;51.466;6.806;2023-04-24T08:53:40;100007.34;;;11.51;94.66
16580;BME280;8402;51.466;6.806;2023-04-24T08:56:13;100015.03;;;11.49;95.53
16580;BME280;8402;51.466;6.806;2023-04-24T08:58:44;100018.22;;;11.51;94.98
16580;BME280;8402;51.466;6.806;2023-04-24T09:01:14;100020.13;;;11.51;94.88
16580;BME280;8402;51.466;6.806;2023-04-24T09:03:44;100025.09;;;11.49;94.82
16580;BME280;8402;51.466;6.806;2023-04-24T09:06:16;100030.53;;;11.49;95.02
16580;BME280;8402;51.466;6.806;2023-04-24T09:08:48;100041.84;;;11.39;96.05
16580;BME280;8402;51.466;6.806;2023-04-24T09:11:24;100059.28;;;11.38;96.28
16580;BME280;8402;51.466;6.806;2023-04-24T09:13:55;100060.41;;;11.37;96.73
16580;BME280;8402;51.466;6.806;2023-04-24T09:16:26;100069.41;;;11.28;96.98
16580;BME280;8402;51.466;6.806;2023-04-24T09:18:56;100078.03;;;11.30;96.42
16580;BME280;8402;51.466;6.806;2023-04-24T09:21:31;100091.81;;;11.25;96.88
16580;BME280;8402;51.466;6.806;2023-04-24T09:24:03;100104.25;;;11.26;97.30
16580;BME280;8402;51.466;6.806;2023-04-24T09:26:37;100116.00;;;11.18;97.78
16580;BME280;8402;51.466;6.806;2023-04-24T09:29:07;100126.78;;;11.27;96.57
16580;BME280;8402;51.466;6.806;2023-04-24T09:31:37;100129.03;;;11.25;95.61
16580;BME280;8402;51.466;6.806;2023-04-24T09:34:07;100134.47;;;11.25;95.29
16580;BME280;8402;51.466;6.806;2023-04-24T09:36:38;100149.97;;;11.24;94.69
16580;BME280;8402;51.466;6.806;2023-04-24T09:39:11;100168.31;;;11.27;95.15
16580;BME280;8402;51.466;6.806;2023-04-24T09:41:49;100173.28;;;11.25;95.18
16580;BME280;8402;51.466;6.806;2023-04-24T09:44:21;100181.25;;;11.30;95.46
16580;BME280;8402;51.466;6.806;2023-04-24T09:46:53;100178.88;;;11.29;95.82
16580;BME280;8402;51.466;6.806;2023-04-24T09:49:25;100203.16;;;11.25;95.64
16580;BME280;8402;51.466;6.806;2023-04-24T09:52:02;100205.88;;;11.25;95.43
16580;BME280;8402;51.466;6.806;2023-04-24T09:54:33;100209.84;;;11.28;95.56
16580;BME280;8402;51.466;6.806;2023-04-24T09:57:07;100208.13;;;11.23;96.36
16580;BME280;8402;51.466;6.806;2023-04-24T09:59:42;100216.06;;;11.28;96.24
16580;BME280;8402;51.466;6.806;2023-04-24T10:02:17;100218.75;;;11.37;95.75
16580;BME280;8402;51.466;6.806;2023-04-24T10:04:54;100225.22;;;11.45;95.75
16580;BME280;8402;51.466;6.806;2023-04-24T10:07:27;100235.88;;;11.50;95.52
16580;BME280;8402;51.466;6.806;2023-04-24T10:09:57;100241.63;;;11.48;96.30
16580;BME280;8402;51.466;6.806;2023-04-24T10:12:31;100245.50;;;11.47;95.80
16580;BME280;8402;51.466;6.806;2023-04-24T10:15:02;100249.94;;;11.52;94.49
16580;BME280;8402;51.466;6.806;2023-04-24T10:17:34;100239.53;;;11.54;95.10
16580;BME280;8402;51.466;6.806;2023-04-24T10:20:06;100253.13;;;11.54;94.88
16580;BME280;8402;51.466;6.806;2023-04-24T10:22:36;100258.34;;;11.59;95.04
16580;BME280;8402;51.466;6.806;2023-04-24T10:25:07;100268.69;;;11.66;94.86
16580;BME280;8402;51.466;6.806;2023-04-24T10:27:41;100268.00;;;11.69;94.69
16580;BME280;8402;51.466;6.806;2023-04-24T10:30:12;100280.41;;;11.78;94.55
16580;BME280;8402;51.466;6.806;2023-04-24T10:32:42;100273.59;;;11.72;94.88
16580;BME280;8402;51.466;6.806;2023-04-24T10:35:13;100286.06;;;11.73;93.81
16580;BME280;8402;51.466;6.806;2023-04-24T10:37:45;100288.03;;;11.64;93.74
16580;BME280;8402;51.466;6.806;2023-04-24T10:40:17;100291.22;;;11.66;93.74
16580;BME280;8402;51.466;6.806;2023-04-24T10:42:51;100290.09;;;11.67;94.67
16580;BME280;8402;51.466;6.806;2023-04-24T10:45:25;100292.94;;;11.71;94.85
16580;BME280;8402;51.466;6.806;2023-04-24T10:47:59;100297.84;;;11.77;93.50
16580;BME280;8402;51.466;6.806;2023-04-24T10:50:43;100302.22;;;11.70;94.44
16580;BME280;8402;51.466;6.806;2023-04-24T10:53:15;100296.94;;;11.73;93.83
16580;BME280;8402;51.466;6.806;2023-04-24T10:55:47;100299.16;;;11.71;93.95
16580;BME280;8402;51.466;6.806;2023-04-24T10:58:23;100317.34;;;11.79;93.78
16580;BME280;8402;51.466;6.806;2023-04-24T11:00:57;100309.34;;;11.83;94.68
16580;BME280;8402;51.466;6.806;2023-04-24T11:03:28;100320.81;;;11.89;94.11
16580;BME280;8402;51.466;6.806;2023-04-24T11:06:01;100327.66;;;11.95;93.52
16580;BME280;8402;51.466;6.806;2023-04-24T11:08:37;100315.44;;;12.01;93.24
16580;BME280;8402;51.466;6.806;2023-04-24T11:11:11;100327.69;;;12.07;93.25
16580;BME280;8402;51.466;6.806;2023-04-24T11:14:06;100329.69;;;11.98;92.72
16580;BME280;8402;51.466;6.806;2023-04-24T11:16:39;100326.09;;;12.06;92.90
16580;BME280;8402;51.466;6.806;2023-04-24T11:19:20;100333.13;;;12.07;93.19
16580;BME280;8402;51.466;6.806;2023-04-24T11:21:57;100332.00;;;12.08;91.93
16580;BME280;8402;51.466;6.806;2023-04-24T11:24:35;100343.19;;;12.06;92.77
16580;BME280;8402;51.466;6.806;2023-04-24T11:27:11;100341.00;;;12.00;93.47
16580;BME280;8402;51.466;6.806;2023-04-24T11:29:48;100340.56;;;11.98;91.88
16580;BME280;8402;51.466;6.806;2023-04-24T11:32:29;100344.03;;;11.86;91.66
16580;BME280;8402;51.466;6.806;2023-04-24T11:35:01;100362.47;;;11.80;90.44
16580;BME280;8402;51.466;6.806;2023-04-24T11:37:34;100363.25;;;11.81;89.44
16580;BME280;8402;51.466;6.806;2023-04-24T11:40:07;100375.41;;;11.75;89.33
16580;BME280;8402;51.466;6.806;2023-04-24T11:42:42;100379.94;;;11.92;89.22
16580;BME280;8402;51.466;6.806;2023-04-24T11:45:17;100386.44;;;11.99;88.66
16580;BME280;8402;51.466;6.806;2023-04-24T11:47:47;100380.22;;;11.99;87.43
16580;BME280;8402;51.466;6.806;2023-04-24T11:50:19;100394.28;;;12.01;87.59
16580;BME280;8402;51.466;6.806;2023-04-24T11:52:51;100394.41;;;12.04;87.00
16580;BME280;8402;51.466;6.806;2023-04-24T11:55:27;100403.03;;;12.06;86.77
16580;BME280;8402;51.466;6.806;2023-04-24T11:57:59;100402.97;;;12.15;86.54
16580;BME280;8402;51.466;6.806;2023-04-24T12:00:32;100407.13;;;12.12;86.31
16580;BME280;8402;51.466;6.806;2023-04-24T12:03:04;100411.59;;;12.17;86.28
16580;BME280;8402;51.466;6.806;2023-04-24T12:05:35;100412.31;;;12.26;86.28
16580;BME280;8402;51.466;6.806;2023-04-24T12:08:06;100412.31;;;12.26;85.29
16580;BME280;8402;51.466;6.806;2023-04-24T12:10:36;100416.06;;;12.22;84.67
16580;BME280;8402;51.466;6.806;2023-04-24T12:13:09;100420.94;;;12.28;84.95
16580;BME280;8402;51.466;6.806;2023-04-24T12:15:42;100427.19;;;12.29;84.48
16580;BME280;8402;51.466;6.806;2023-04-24T12:18:14;100428.28;;;12.28;84.76
16580;BME280;8402;51.466;6.806;2023-04-24T12:20:44;100429.56;;;12.30;84.94
16580;BME280;8402;51.466;6.806;2023-04-24T12:23:14;100434.69;;;12.32;84.98
16580;BME280;8402;51.466;6.806;2023-04-24T12:25:44;100438.19;;;12.32;84.51
16580;BME280;8402;51.466;6.806;2023-04-24T12:28:14;100447.22;;;12.24;82.64
16580;BME280;8402;51.466;6.806;2023-04-24T12:30:48;100448.34;;;12.23;81.35
16580;BME280;8402;51.466;6.806;2023-04-24T12:33:18;100449.59;;;12.26;81.87
16580;BME280;8402;51.466;6.806;2023-04-24T12:35:51;100456.78;;;12.30;81.75
16580;BME280;8402;51.466;6.806;2023-04-24T12:38:23;100451.94;;;12.36;81.46
16580;BME280;8402;51.466;6.806;2023-04-24T12:41:02;100454.78;;;12.39;81.54
16580;BME280;8402;51.466;6.806;2023-04-24T12:43:33;100467.50;;;12.48;81.11
16580;BME280;8402;51.466;6.806;2023-04-24T12:46:06;100465.03;;;12.55;79.74
16580;BME280;8402;51.466;6.806;2023-04-24T12:48:36;100463.38;;;12.62;79.83
16580;BME280;8402;51.466;6.806;2023-04-24T12:51:06;100461.25;;;12.68;79.11
16580;BME280;8402;51.466;6.806;2023-04-24T12:53:36;100464.94;;;12.84;79.17
16580;BME280;8402;51.466;6.806;2023-04-24T12:56:06;100465.41;;;12.99;79.17
16580;BME280;8402;51.466;6.806;2023-04-24T12:58:36;100470.91;;;13.11;78.95
16580;BME280;8402;51.466;6.806;2023-04-24T13:01:09;100468.09;;;13.19;76.59
16580;BME280;8402;51.466;6.806;2023-04-24T13:03:39;100476.41;;;13.23;76.56
16580;BME280;8402;51.466;6.806;2023-04-24T13:06:10;100484.91;;;13.21;75.60
16580;BME280;8402;51.466;6.806;2023-04-24T13:08:40;100485.47;;;13.15;75.95
16580;BME280;8402;51.466;6.806;2023-04-24T13:11:10;100486.34;;;13.19;76.44
16580;BME280;8402;51.466;6.806;2023-04-24T13:13:41;100486.84;;;13.21;76.08
16580;BME280;8402;51.466;6.806;2023-04-24T13:16:13;100490.59;;;13.29;75.70
16580;BME280;8402;51.466;6.806;2023-04-24T13:18:43;100500.94;;;13.35;75.57
16580;BME280;8402;51.466;6.806;2023-04-24T13:21:13;100500.72;;;13.40;75.93
16580;BME280;8402;51.466;6.806;2023-04-24T13:23:43;100498.69;;;13.37;74.66
16580;BME280;8402;51.466;6.806;2023-04-24T13:26:13;100502.56;;;13.36;74.00
16580;BME280;8402;51.466;6.806;2023-04-24T13:28:44;100497.78;;;13.33;74.58